Islamabad, Pakistan
Current Conditions -  °F | °C
As of 12:00 PM on Wednesday 22 Oct 2014 (Local Time) from OPRN Reporting Station
Clear Clear  
Wind Chill: 82°   Ceiling: Unl
Heat Index: 83°   Visibility: 4mi
Dew Point: 63°   Wind: 9mph
Humidity: 51%   Direction: 270°W
Pressure: NA   Gusts: NA
Location:  33.72°N, 73.06°E
Report Text: OPRN 220700Z 27008KT 7000 SKC 28/17 Q1020/30.12
Loading
Personal Weather Stations






























Interactive Weather Map
Tropical Storm Tracking
New forecast layout! Learn more

10-Day Weather Forecast

Advertisements
Track Severe Weather on mobile